Time;durP1;ratioP1;P1;durP2;ratioP2;P2;SDS_P1;SDS_P2;PMS_P1;PMS_P2;Temp;Humidity;BMP_temperature;BMP_pressure;BME280_temperature;BME280_humidity;BME280_pressure;Samples;Min_cycle;Max_cycle;Signal;HPM_P1;HPM_P2
2020/12/13 00:00:58;;;;;;;9.48;6.00;;;20.00;43.80;;;;;;6245619;28;20026;-62
2020/12/13 00:03:59;;;;;;;8.93;5.88;;;19.90;43.70;;;;;;6245684;28;20083;-60
2020/12/13 00:06:59;;;;;;;10.20;6.72;;;19.90;43.70;;;;;;6246146;28;20043;-62
2020/12/13 00:10:00;;;;;;;10.73;6.70;;;19.90;43.70;;;;;;6245938;28;20033;-60
2020/12/13 00:13:00;;;;;;;12.00;6.70;;;19.90;43.70;;;;;;6245682;28;20025;-62
2020/12/13 00:16:02;;;;;;;10.45;6.20;;;19.90;43.80;;;;;;6246439;28;20029;-62
2020/12/13 00:19:03;;;;;;;9.07;6.22;;;19.90;43.80;;;;;;6246407;28;20026;-62
2020/12/13 00:22:03;;;;;;;9.05;5.60;;;19.90;43.80;;;;;;6245988;28;20446;-62
2020/12/13 00:25:04;;;;;;;8.98;6.15;;;19.90;44.10;;;;;;6245116;28;20057;-61
2020/12/13 00:28:04;;;;;;;9.40;6.20;;;19.90;43.90;;;;;;6245057;28;20499;-62
2020/12/13 00:31:11;;;;;;;9.00;5.97;;;19.90;43.80;;;;;;6245762;28;20018;-62
2020/12/13 00:34:12;;;;;;;9.95;6.68;;;19.90;43.80;;;;;;6245378;28;20029;-62
2020/12/13 00:37:13;;;;;;;8.60;5.80;;;19.90;43.80;;;;;;6245612;28;20028;-60
2020/12/13 00:40:13;;;;;;;10.50;6.72;;;19.90;43.80;;;;;;6244033;28;20041;-61
2020/12/13 00:43:14;;;;;;;8.57;5.75;;;19.90;43.80;;;;;;6245537;28;20527;-61
2020/12/13 00:46:14;;;;;;;9.82;5.90;;;19.90;43.90;;;;;;6245422;28;20563;-63
2020/12/13 00:49:15;;;;;;;9.93;6.30;;;19.90;43.90;;;;;;6245270;28;20499;-62
2020/12/13 00:52:16;;;;;;;10.50;6.82;;;19.90;43.80;;;;;;6244941;28;20034;-62
2020/12/13 00:55:16;;;;;;;9.48;6.55;;;19.90;43.90;;;;;;6245347;28;20049;-62
2020/12/13 00:58:16;;;;;;;9.15;6.45;;;19.90;43.90;;;;;;6244893;28;20033;-61
2020/12/13 01:01:17;;;;;;;10.52;6.72;;;19.90;43.90;;;;;;6244486;28;20029;-62
2020/12/13 01:04:17;;;;;;;8.90;6.03;;;19.90;43.90;;;;;;6244147;28;20029;-62
2020/12/13 01:07:18;;;;;;;9.23;6.53;;;19.90;43.90;;;;;;6244720;28;20072;-62
2020/12/13 01:10:20;;;;;;;11.48;6.63;;;19.90;43.90;;;;;;6244629;28;20049;-62
2020/12/13 01:13:20;;;;;;;9.88;6.45;;;19.90;43.90;;;;;;6245017;28;20042;-62
2020/12/13 01:16:22;;;;;;;10.50;6.45;;;19.90;43.90;;;;;;6244779;28;20022;-63
2020/12/13 01:19:23;;;;;;;9.90;6.18;;;19.90;43.90;;;;;;6244392;28;20549;-63
2020/12/13 01:22:23;;;;;;;10.82;6.38;;;19.90;43.90;;;;;;6244439;28;20064;-62
2020/12/13 01:25:24;;;;;;;10.15;6.32;;;19.90;43.90;;;;;;6244331;28;20431;-63
2020/12/13 01:28:24;;;;;;;11.05;6.57;;;19.90;43.90;;;;;;6244195;28;20404;-62
2020/12/13 01:31:24;;;;;;;10.93;7.07;;;19.90;44.00;;;;;;6244367;28;20098;-61
2020/12/13 01:34:25;;;;;;;12.07;6.55;;;19.80;43.90;;;;;;6244168;28;20021;-61
2020/12/13 01:37:25;;;;;;;9.80;6.28;;;19.90;44.00;;;;;;6244321;28;20029;-63
2020/12/13 01:40:26;;;;;;;10.82;7.07;;;19.90;44.00;;;;;;6243732;28;20035;-62
2020/12/13 01:43:26;;;;;;;10.95;6.85;;;19.80;43.90;;;;;;6245423;28;20093;-63
2020/12/13 01:46:28;;;;;;;10.20;6.40;;;19.80;43.90;;;;;;6256761;28;20050;-63
2020/12/13 01:49:33;;;;;;;11.07;6.80;;;19.80;43.90;;;;;;6257754;28;20029;-62
2020/12/13 01:52:47;;;;;;;9.45;6.22;;;19.80;43.90;;;;;;6243910;28;20464;-63
2020/12/13 01:55:48;;;;;;;10.90;6.68;;;19.80;44.00;;;;;;6244409;28;20175;-62
2020/12/13 01:58:52;;;;;;;9.40;5.90;;;19.80;44.70;;;;;;6243319;28;20037;-63
2020/12/13 02:01:56;;;;;;;10.07;6.63;;;19.80;44.00;;;;;;6243718;28;20022;-62
2020/12/13 02:04:59;;;;;;;11.43;6.47;;;19.80;44.00;;;;;;6243167;28;20036;-61
2020/12/13 02:08:02;;;;;;;8.77;6.28;;;19.80;44.00;;;;;;6243668;28;20431;-62
2020/12/13 02:11:02;;;;;;;10.63;6.53;;;19.80;44.00;;;;;;6243483;28;20036;-62
2020/12/13 02:14:04;;;;;;;10.10;6.40;;;19.80;44.00;;;;;;6243251;28;20068;-62
2020/12/13 02:17:05;;;;;;;9.57;6.75;;;19.80;44.00;;;;;;6242170;28;20032;-64
2020/12/13 02:20:12;;;;;;;8.90;6.00;;;19.80;44.00;;;;;;6242486;28;20025;-61
2020/12/13 02:23:13;;;;;;;9.07;6.07;;;19.80;44.00;;;;;;6243276;28;20523;-63
2020/12/13 02:26:15;;;;;;;9.93;6.80;;;19.80;44.00;;;;;;6242669;28;20115;-63
2020/12/13 02:29:16;;;;;;;10.40;6.82;;;19.80;44.00;;;;;;6243147;28;20144;-63
2020/12/13 02:32:16;;;;;;;10.07;6.75;;;19.80;44.00;;;;;;6242973;28;20057;-62
2020/12/13 02:35:17;;;;;;;10.52;6.75;;;19.80;44.10;;;;;;6243058;28;20448;-62
2020/12/13 02:38:17;;;;;;;9.98;6.47;;;19.80;44.00;;;;;;6242930;28;20131;-63
2020/12/13 02:41:18;;;;;;;10.45;6.63;;;19.80;44.00;;;;;;6242792;28;20033;-63
2020/12/13 02:44:24;;;;;;;9.93;6.13;;;19.80;44.10;;;;;;6243251;28;20032;-63
2020/12/13 02:47:24;;;;;;;10.05;6.70;;;19.80;44.10;;;;;;6242443;28;20026;-63
2020/12/13 02:50:24;;;;;;;9.88;6.25;;;19.80;44.10;;;;;;6243117;28;20029;-63
2020/12/13 02:53:25;;;;;;;11.13;7.32;;;19.80;44.10;;;;;;6242934;28;20017;-62
2020/12/13 02:56:31;;;;;;;9.40;6.07;;;19.80;44.10;;;;;;6243130;28;20021;-62
2020/12/13 02:59:32;;;;;;;9.90;6.43;;;19.80;44.10;;;;;;6242716;28;20026;-63
2020/12/13 03:02:32;;;;;;;9.45;6.47;;;19.80;44.10;;;;;;6242577;28;20029;-62
2020/12/13 03:05:33;;;;;;;10.55;6.97;;;19.80;44.10;;;;;;6242334;28;20112;-63
2020/12/13 03:08:33;;;;;;;9.35;6.13;;;19.80;44.10;;;;;;6242972;28;20472;-62
2020/12/13 03:11:34;;;;;;;10.23;6.57;;;19.80;44.20;;;;;;6241990;28;20037;-63
2020/12/13 03:14:34;;;;;;;11.35;6.80;;;19.80;44.20;;;;;;6242605;28;20025;-62
2020/12/13 03:17:35;;;;;;;9.80;6.50;;;19.70;44.10;;;;;;6242540;28;20245;-61
2020/12/13 03:20:35;;;;;;;10.80;6.60;;;19.80;44.10;;;;;;6241988;28;20033;-62
2020/12/13 03:23:36;;;;;;;10.75;6.68;;;19.70;44.10;;;;;;6242333;28;20032;-63
2020/12/13 03:26:37;;;;;;;9.07;6.25;;;19.80;44.20;;;;;;6242683;28;20424;-61
2020/12/13 03:29:37;;;;;;;10.48;6.35;;;19.70;44.10;;;;;;6246773;28;20075;-62
2020/12/13 03:32:38;;;;;;;9.70;6.50;;;19.70;44.10;;;;;;6246658;28;20054;-62
2020/12/13 03:35:38;;;;;;;10.45;6.88;;;19.70;44.10;;;;;;6247678;28;20051;-62
2020/12/13 03:38:39;;;;;;;12.82;6.88;;;19.70;44.10;;;;;;6246868;28;20073;-61
2020/12/13 03:41:40;;;;;;;10.40;6.93;;;19.70;44.10;;;;;;6246707;28;20546;-62
2020/12/13 03:44:40;;;;;;;10.30;6.65;;;19.70;44.10;;;;;;6247028;28;20057;-61
2020/12/13 03:47:40;;;;;;;12.65;7.57;;;19.70;44.10;;;;;;6246399;28;20495;-62
2020/12/13 03:50:41;;;;;;;11.35;7.25;;;19.70;44.10;;;;;;6246525;28;20026;-61
2020/12/13 03:53:41;;;;;;;10.43;6.82;;;19.70;44.10;;;;;;6246481;28;20021;-63
2020/12/13 03:56:42;;;;;;;13.75;7.20;;;19.70;44.20;;;;;;6246733;28;20025;-61
2020/12/13 03:59:42;;;;;;;9.88;6.25;;;19.70;44.10;;;;;;6245778;28;20037;-63
2020/12/13 04:02:43;;;;;;;10.57;7.18;;;19.70;44.20;;;;;;6246580;28;20498;-63
2020/12/13 04:05:43;;;;;;;11.52;7.40;;;19.70;44.20;;;;;;6246118;28;20499;-62
2020/12/13 04:08:44;;;;;;;10.30;6.60;;;19.70;44.20;;;;;;6245853;28;20021;-62
2020/12/13 04:11:44;;;;;;;11.82;7.03;;;19.70;44.20;;;;;;6246109;28;20484;-61
2020/12/13 04:14:45;;;;;;;11.98;7.10;;;19.70;44.80;;;;;;6245883;28;20048;-63
2020/12/13 04:17:45;;;;;;;11.60;6.65;;;19.70;44.20;;;;;;6246320;28;20070;-63
2020/12/13 04:20:45;;;;;;;11.45;7.15;;;19.70;44.20;;;;;;6245431;28;20068;-63
2020/12/13 04:23:46;;;;;;;10.70;7.20;;;19.70;44.20;;;;;;6248368;28;20403;-63
2020/12/13 04:26:46;;;;;;;10.55;7.00;;;19.70;44.20;;;;;;6270115;28;20387;-64
2020/12/13 04:29:47;;;;;;;11.68;7.03;;;19.70;44.20;;;;;;6270922;28;20032;-62
2020/12/13 04:32:47;;;;;;;11.57;6.93;;;19.70;44.30;;;;;;6270744;28;20022;-60
2020/12/13 04:35:48;;;;;;;11.05;6.88;;;19.70;44.30;;;;;;6270623;28;20480;-61
2020/12/13 04:38:48;;;;;;;12.32;7.40;;;19.70;44.30;;;;;;6270938;28;20437;-61
2020/12/13 04:41:49;;;;;;;10.98;6.95;;;19.70;44.30;;;;;;6269517;28;20431;-62
2020/12/13 04:44:50;;;;;;;12.18;7.32;;;19.70;44.30;;;;;;6270552;28;20083;-63
2020/12/13 04:48:05;;;;;;;9.90;6.20;;;19.70;44.30;;;;;;6269619;28;20503;-62
2020/12/13 04:51:08;;;;;;;10.10;6.33;;;19.60;44.20;;;;;;6270021;28;20035;-62
2020/12/13 04:54:08;;;;;;;11.93;7.35;;;19.70;44.30;;;;;;6269911;28;20256;-62
2020/12/13 04:57:09;;;;;;;10.48;7.32;;;19.70;44.30;;;;;;6270006;28;20424;-61
2020/12/13 05:00:09;;;;;;;10.65;6.93;;;19.70;44.30;;;;;;6269474;28;20021;-63
2020/12/13 05:03:15;;;;;;;11.30;6.95;;;19.70;44.30;;;;;;6269897;28;20029;-62
2020/12/13 05:06:15;;;;;;;;;;;19.70;44.30;;;;;;6269938;28;20468;-62
2020/12/13 05:09:17;;;;;;;11.50;7.03;;;19.70;44.30;;;;;;6269784;28;19912;-61
2020/12/13 05:12:23;;;;;;;11.85;6.93;;;19.70;44.20;;;;;;6269527;28;20522;-63
2020/12/13 05:15:23;;;;;;;10.65;6.65;;;19.80;44.20;;;;;;6260516;28;20288;-63
2020/12/13 05:18:24;;;;;;;10.82;6.80;;;19.80;44.10;;;;;;6244749;28;20036;-63
2020/12/13 05:21:25;;;;;;;11.30;6.88;;;19.80;44.10;;;;;;6244660;28;20053;-63
2020/12/13 05:24:27;;;;;;;10.27;6.68;;;19.80;44.10;;;;;;6244477;28;20025;-63
2020/12/13 05:27:39;;;;;;;12.48;7.50;;;19.80;44.20;;;;;;6244344;28;20125;-63
2020/12/13 05:30:45;;;;;;;10.13;6.22;;;19.80;44.10;;;;;;6244386;28;20045;-64
2020/12/13 05:33:55;;;;;;;10.43;6.82;;;19.80;44.10;;;;;;6244049;28;20057;-61
2020/12/13 05:36:56;;;;;;;10.93;7.13;;;19.80;44.20;;;;;;6250309;28;20029;-64
2020/12/13 05:39:58;;;;;;;10.15;6.32;;;19.90;44.30;;;;;;6244486;28;20045;-63
2020/12/13 05:43:05;;;;;;;10.75;7.18;;;19.90;44.30;;;;;;6244423;28;20043;-63
2020/12/13 05:46:21;;;;;;;9.93;6.63;;;19.90;44.30;;;;;;6243719;28;20750;-63
2020/12/13 05:49:42;;;;;;;10.60;6.80;;;19.90;44.30;;;;;;6243575;28;20025;-62
2020/12/13 05:52:43;;;;;;;10.15;6.63;;;19.90;44.30;;;;;;6251305;28;20017;-64
2020/12/13 05:55:44;;;;;;;11.18;7.28;;;19.90;44.40;;;;;;6268617;28;20087;-63
2020/12/13 05:58:45;;;;;;;12.45;7.13;;;19.90;44.40;;;;;;6267359;28;20024;-63
2020/12/13 06:01:48;;;;;;;11.10;7.10;;;19.80;44.30;;;;;;6258956;28;20119;-62
2020/12/13 06:04:59;;;;;;;10.45;6.40;;;19.90;44.40;;;;;;6243084;28;20026;-61
2020/12/13 06:08:03;;;;;;;10.85;6.40;;;19.90;44.40;;;;;;6242609;28;20033;-63
2020/12/13 06:11:06;;;;;;;10.43;7.03;;;19.90;44.40;;;;;;6242618;28;20033;-61
2020/12/13 06:14:16;;;;;;;11.05;6.85;;;19.90;44.50;;;;;;6243677;28;20431;-63
2020/12/13 06:17:17;;;;;;;10.57;6.70;;;19.90;44.50;;;;;;6243646;28;20459;-62
2020/12/13 06:20:17;;;;;;;10.30;6.80;;;19.90;44.50;;;;;;6243354;28;20029;-63
2020/12/13 06:23:19;;;;;;;11.75;6.78;;;19.90;44.50;;;;;;6243138;28;20154;-63
2020/12/13 06:26:20;;;;;;;9.50;6.63;;;19.90;44.50;;;;;;6243138;28;20446;-63
2020/12/13 06:29:22;;;;;;;10.45;6.70;;;19.90;44.50;;;;;;6243195;28;20025;-62
2020/12/13 06:32:22;;;;;;;9.88;6.68;;;19.90;44.50;;;;;;6242395;28;20030;-61
2020/12/13 06:35:23;;;;;;;11.23;6.82;;;19.90;44.50;;;;;;6242951;28;20392;-63
2020/12/13 06:38:28;;;;;;;9.65;6.45;;;19.90;44.50;;;;;;6242973;28;20671;-63
2020/12/13 06:41:31;;;;;;;11.02;6.95;;;19.90;44.50;;;;;;6242534;28;20124;-63
2020/12/13 06:44:31;;;;;;;8.57;5.78;;;19.90;44.50;;;;;;6243307;28;20036;-62
2020/12/13 06:47:32;;;;;;;9.15;6.03;;;19.90;44.50;;;;;;6243280;28;20026;-64
2020/12/13 06:50:32;;;;;;;10.18;6.57;;;19.90;44.50;;;;;;6242534;28;20071;-63
2020/12/13 06:53:34;;;;;;;8.27;6.03;;;19.90;44.60;;;;;;6242918;28;20491;-63
2020/12/13 06:56:36;;;;;;;10.50;6.97;;;19.90;44.50;;;;;;6242465;28;20068;-61
2020/12/13 06:59:44;;;;;;;11.25;7.00;;;19.90;44.60;;;;;;6242678;28;20105;-63
2020/12/13 07:02:54;;;;;;;11.52;6.60;;;19.90;44.50;;;;;;6243511;28;20071;-63
2020/12/13 07:05:57;;;;;;;9.80;6.57;;;19.90;44.60;;;;;;6248321;28;20075;-63
2020/12/13 07:09:00;;;;;;;10.50;6.50;;;19.90;44.60;;;;;;6247647;28;20388;-63
2020/12/13 07:12:02;;;;;;;10.63;7.03;;;19.90;44.60;;;;;;6247279;28;20030;-62
2020/12/13 07:15:19;;;;;;;10.13;6.47;;;19.90;44.70;;;;;;6247548;28;20017;-63
2020/12/13 07:18:22;;;;;;;9.82;6.88;;;19.90;44.60;;;;;;6247881;28;20071;-63
2020/12/13 07:21:22;;;;;;;10.18;6.82;;;19.90;44.60;;;;;;6247390;28;20108;-63
2020/12/13 07:24:23;;;;;;;10.82;7.15;;;19.90;44.60;;;;;;6246448;28;20052;-63
2020/12/13 07:27:26;;;;;;;11.13;7.07;;;19.90;44.60;;;;;;6247449;28;20163;-63
2020/12/13 07:30:28;;;;;;;10.38;6.57;;;19.90;44.60;;;;;;6245959;28;20105;-63
2020/12/13 07:33:29;;;;;;;12.05;7.13;;;19.90;44.60;;;;;;6247311;28;20056;-63
2020/12/13 07:36:30;;;;;;;11.13;6.93;;;19.90;44.60;;;;;;6246928;28;20029;-63
2020/12/13 07:39:31;;;;;;;9.80;6.40;;;19.90;44.70;;;;;;6247198;28;20084;-63
2020/12/13 07:42:31;;;;;;;9.68;6.63;;;19.90;44.70;;;;;;6245636;28;20055;-62
2020/12/13 07:45:32;;;;;;;10.07;6.90;;;19.90;44.60;;;;;;6246636;28;20380;-63
2020/12/13 07:48:32;;;;;;;11.20;6.90;;;19.90;44.60;;;;;;6246840;28;20079;-63
2020/12/13 07:51:39;;;;;;;13.30;7.00;;;19.90;44.60;;;;;;6245151;28;20024;-63
2020/12/13 07:54:39;;;;;;;10.93;7.07;;;19.90;44.70;;;;;;6246647;28;20130;-63
2020/12/13 07:57:47;;;;;;;10.63;6.78;;;19.90;44.70;;;;;;6246256;28;20034;-63
2020/12/13 08:00:47;;;;;;;11.02;6.60;;;19.90;44.70;;;;;;6245515;28;20022;-63
2020/12/13 08:03:48;;;;;;;10.95;7.00;;;19.90;44.60;;;;;;6255651;28;20025;-63
2020/12/13 08:06:57;;;;;;;10.77;6.80;;;19.90;44.60;;;;;;6271214;28;20079;-62
2020/12/13 08:09:58;;;;;;;11.73;6.90;;;19.90;44.70;;;;;;6270302;28;20029;-62
2020/12/13 08:12:59;;;;;;;11.35;7.18;;;19.90;44.70;;;;;;6248201;28;20333;-63
2020/12/13 08:16:01;;;;;;;10.60;6.30;;;19.90;44.60;;;;;;6245772;28;20484;-64
2020/12/13 08:19:08;;;;;;;11.40;7.25;;;19.90;44.70;;;;;;6246398;28;20060;-61
2020/12/13 08:22:25;;;;;;;11.65;6.63;;;19.90;44.60;;;;;;6244667;28;20064;-63
2020/12/13 08:25:26;;;;;;;11.88;7.63;;;19.90;44.70;;;;;;6246273;28;20392;-62
2020/12/13 08:28:28;;;;;;;10.60;7.15;;;19.90;44.60;;;;;;6245825;28;20022;-63
2020/12/13 08:31:30;;;;;;;11.32;7.03;;;19.90;44.60;;;;;;6244169;28;20072;-63
2020/12/13 08:34:30;;;;;;;12.05;7.28;;;19.90;44.60;;;;;;6245729;28;20124;-63
2020/12/13 08:37:31;;;;;;;9.70;6.45;;;19.90;44.70;;;;;;6245465;28;20506;-63
2020/12/13 08:40:45;;;;;;;11.20;6.88;;;19.90;44.70;;;;;;6245095;28;20634;-63
2020/12/13 08:43:45;;;;;;;9.68;6.65;;;19.90;44.70;;;;;;6244930;28;20033;-63
2020/12/13 08:46:49;;;;;;;11.65;7.50;;;19.90;44.70;;;;;;6245459;28;20080;-63
2020/12/13 08:49:49;;;;;;;12.05;6.85;;;19.90;44.70;;;;;;6245209;28;20083;-63
2020/12/13 08:52:50;;;;;;;12.43;7.05;;;19.90;44.70;;;;;;6244543;28;20700;-63
2020/12/13 08:56:13;;;;;;;11.52;7.13;;;19.90;44.70;;;;;;6245039;28;20086;-63
2020/12/13 08:59:19;;;;;;;8.43;6.15;;;19.90;44.70;;;;;;6244980;28;20026;-63
2020/12/13 09:02:20;;;;;;;9.82;6.47;;;19.90;44.70;;;;;;6243727;28;20488;-63
2020/12/13 09:05:25;;;;;;;9.27;6.25;;;19.90;44.70;;;;;;6245504;28;20041;-63
2020/12/13 09:08:25;;;;;;;9.60;6.63;;;19.90;44.70;;;;;;6244605;28;20099;-63
2020/12/13 09:11:30;;;;;;;10.18;6.63;;;19.90;44.60;;;;;;6244685;28;20030;-63
2020/12/13 09:14:32;;;;;;;10.60;6.50;;;19.90;44.40;;;;;;6244351;28;20033;-62
2020/12/13 09:17:33;;;;;;;10.43;6.45;;;20.00;44.40;;;;;;6245273;28;20025;-63
2020/12/13 09:20:36;;;;;;;10.43;6.50;;;20.10;44.20;;;;;;6243976;28;20029;-63
2020/12/13 09:23:37;;;;;;;10.52;6.75;;;20.20;44.10;;;;;;6244539;28;20030;-63
2020/12/13 09:26:37;;;;;;;10.88;6.30;;;20.20;44.00;;;;;;6244147;28;20596;-63
2020/12/13 09:29:39;;;;;;;9.60;6.07;;;20.30;44.20;;;;;;6244087;28;20029;-63
2020/12/13 09:32:39;;;;;;;8.48;5.88;;;20.30;44.10;;;;;;6244874;28;20105;-62
2020/12/13 09:35:40;;;;;;;9.00;6.28;;;20.40;44.20;;;;;;6242497;28;20039;-63
2020/12/13 09:38:40;;;;;;;9.75;6.38;;;20.40;44.10;;;;;;6244504;28;20108;-63
2020/12/13 09:41:41;;;;;;;9.18;6.05;;;20.50;44.20;;;;;;6243470;28;20091;-63
2020/12/13 09:44:47;;;;;;;9.35;6.65;;;20.50;44.10;;;;;;6244619;28;20033;-63
2020/12/13 09:47:47;;;;;;;10.50;6.60;;;20.50;44.10;;;;;;6244543;28;20029;-63
2020/12/13 09:50:48;;;;;;;8.75;5.90;;;20.50;44.20;;;;;;6243930;28;20507;-63
2020/12/13 09:53:48;;;;;;;9.18;5.93;;;20.60;44.30;;;;;;6243753;28;20541;-63
2020/12/13 09:56:49;;;;;;;8.48;6.07;;;20.60;44.20;;;;;;6243964;28;20079;-63
2020/12/13 09:59:49;;;;;;;10.00;6.25;;;20.60;44.20;;;;;;6243796;28;20542;-63
2020/12/13 10:02:50;;;;;;;11.02;6.43;;;20.60;44.30;;;;;;6243344;28;20108;-63
2020/12/13 10:09:07;;;;;;;7.88;5.60;;;20.70;45.10;;;;;;6243162;28;20112;-63
2020/12/13 10:12:08;;;;;;;9.48;6.38;;;20.70;44.40;;;;;;6243110;28;20450;-62
2020/12/13 10:15:10;;;;;;;9.32;6.20;;;20.70;44.50;;;;;;6243166;28;20339;-62
2020/12/13 10:18:11;;;;;;;10.30;6.47;;;20.70;44.40;;;;;;6243478;28;20057;-63
2020/12/13 10:21:11;;;;;;;8.90;6.28;;;20.70;44.40;;;;;;6241516;28;20021;-63
2020/12/13 10:24:12;;;;;;;7.38;5.28;;;20.70;44.30;;;;;;6243830;28;20060;-62
2020/12/13 10:27:12;;;;;;;8.15;5.68;;;20.70;44.30;;;;;;6242714;28;20033;-63
2020/12/13 10:30:13;;;;;;;9.10;6.40;;;20.70;44.40;;;;;;6241889;28;20030;-63
2020/12/13 10:33:13;;;;;;;9.70;5.82;;;20.70;44.40;;;;;;6243275;28;20083;-62
2020/12/13 10:36:14;;;;;;;10.50;5.90;;;20.70;44.40;;;;;;6243124;28;20033;-63
2020/12/13 10:39:19;;;;;;;8.35;5.32;;;20.70;44.30;;;;;;6243225;28;20029;-63
2020/12/13 10:42:19;;;;;;;9.13;5.65;;;20.70;44.30;;;;;;6242853;28;20037;-63
2020/12/13 10:45:20;;;;;;;8.90;6.00;;;20.70;44.30;;;;;;6242418;28;20029;-63
2020/12/13 10:48:20;;;;;;;8.57;5.82;;;20.80;44.30;;;;;;6242298;28;20033;-63
2020/12/13 10:51:21;;;;;;;9.07;5.82;;;20.80;44.30;;;;;;6243366;28;20053;-63
2020/12/13 10:54:22;;;;;;;9.27;6.38;;;20.80;44.30;;;;;;6242823;28;20556;-63
2020/12/13 10:57:25;;;;;;;8.70;6.13;;;20.80;44.30;;;;;;6243130;28;20030;-63
2020/12/13 11:00:25;;;;;;;8.48;5.65;;;20.80;44.30;;;;;;6242156;28;20053;-63
2020/12/13 11:03:26;;;;;;;9.68;6.65;;;20.80;44.20;;;;;;6243090;28;20036;-63
2020/12/13 11:06:28;;;;;;;8.40;5.65;;;20.80;44.20;;;;;;6243186;28;20037;-63
2020/12/13 11:09:28;;;;;;;13.63;5.93;;;20.80;44.20;;;;;;6236362;28;20559;-64
2020/12/13 11:12:28;;;;;;;11.93;5.57;;;20.80;44.30;;;;;;6236653;28;20064;-65
2020/12/13 11:15:29;;;;;;;12.02;5.95;;;20.80;44.30;;;;;;6241195;28;20108;-65
2020/12/13 11:18:30;;;;;;;15.48;6.60;;;20.90;44.20;;;;;;6240768;28;20107;-67
2020/12/13 11:21:31;;;;;;;9.02;5.85;;;20.90;44.00;;;;;;6243419;28;20163;-67
2020/12/13 11:24:31;;;;;;;12.82;6.03;;;21.00;44.10;;;;;;6239272;28;20034;-65
2020/12/13 11:27:32;;;;;;;10.60;6.35;;;21.00;44.20;;;;;;6243289;28;20021;-65
2020/12/13 11:30:33;;;;;;;10.20;5.88;;;21.00;44.00;;;;;;6261481;28;20009;-65
2020/12/13 11:33:34;;;;;;;16.08;5.90;;;21.10;44.10;;;;;;6238667;28;20119;-69
2020/12/13 11:36:34;;;;;;;21.00;5.90;;;21.10;44.30;;;;;;6261864;28;20037;-68
2020/12/13 11:39:36;;;;;;;15.88;6.88;;;21.10;44.10;;;;;;6241872;28;20041;-69
2020/12/13 11:42:36;;;;;;;9.40;5.65;;;21.10;44.30;;;;;;6246619;28;20495;-68
2020/12/13 11:45:37;;;;;;;13.48;6.13;;;21.10;44.10;;;;;;6238829;28;20069;-67
2020/12/13 11:48:37;;;;;;;9.32;5.88;;;21.10;44.20;;;;;;6259404;28;20025;-67
2020/12/13 11:51:42;;;;;;;11.80;6.40;;;21.20;44.40;;;;;;6257815;28;20394;-67
2020/12/13 11:54:44;;;;;;;10.43;6.43;;;21.20;44.70;;;;;;6265618;28;20025;-67
2020/12/13 11:57:45;;;;;;;11.15;6.60;;;21.20;44.20;;;;;;6258955;28;20099;-66
2020/12/13 12:00:45;;;;;;;9.57;6.03;;;21.20;44.10;;;;;;6252412;28;20045;-67
2020/12/13 12:03:46;;;;;;;13.30;6.50;;;21.20;44.10;;;;;;6254809;28;20367;-67
2020/12/13 12:06:47;;;;;;;9.27;6.30;;;21.20;44.00;;;;;;6245554;28;20121;-67
2020/12/13 12:09:48;;;;;;;9.27;5.95;;;21.20;44.00;;;;;;6257589;28;20022;-68
2020/12/13 12:12:48;;;;;;;8.30;5.78;;;21.20;43.90;;;;;;6251961;28;20117;-67
2020/12/13 12:15:49;;;;;;;8.35;5.68;;;21.20;43.80;;;;;;6258344;28;20029;-67
2020/12/13 12:18:50;;;;;;;9.77;6.20;;;21.20;43.80;;;;;;6254011;28;20049;-66
2020/12/13 12:21:50;;;;;;;9.93;5.95;;;21.20;43.80;;;;;;6243010;28;20311;-67
2020/12/13 12:24:51;;;;;;;9.93;5.57;;;21.20;43.70;;;;;;6257360;28;20056;-66
2020/12/13 12:27:51;;;;;;;9.23;5.68;;;21.20;43.80;;;;;;6260679;28;20026;-67
2020/12/13 12:30:51;;;;;;;10.00;5.82;;;21.20;43.70;;;;;;6242433;28;20014;-67
2020/12/13 12:33:53;;;;;;;8.60;5.95;;;21.20;43.70;;;;;;6248935;28;20048;-68
2020/12/13 12:36:53;;;;;;;8.07;5.40;;;21.20;43.60;;;;;;6267364;28;20029;-67
2020/12/13 12:39:55;;;;;;;8.98;5.78;;;21.20;43.60;;;;;;6244829;28;20053;-68
2020/12/13 12:42:56;;;;;;;8.82;6.05;;;21.20;43.70;;;;;;6248015;28;20344;-68
2020/12/13 12:45:56;;;;;;;8.13;5.57;;;21.20;43.60;;;;;;6267864;28;20017;-67
2020/12/13 12:48:56;;;;;;;9.85;6.25;;;21.20;43.60;;;;;;6257252;28;20034;-67
2020/12/13 12:51:57;;;;;;;8.90;5.38;;;21.20;43.60;;;;;;6241860;28;20125;-66
2020/12/13 12:54:57;;;;;;;9.55;5.97;;;21.20;43.70;;;;;;6263935;28;20052;-67
2020/12/13 12:58:00;;;;;;;8.48;5.82;;;21.20;43.70;;;;;;6262921;28;20075;-67
2020/12/13 13:01:04;;;;;;;9.70;5.95;;;21.20;43.60;;;;;;6253479;28;20488;-68
2020/12/13 13:04:17;;;;;;;8.95;5.97;;;21.20;43.70;;;;;;6253564;28;20025;-67
2020/12/13 13:07:18;;;;;;;9.70;6.10;;;21.20;43.60;;;;;;6242992;28;20484;-66
2020/12/13 13:10:29;;;;;;;9.10;5.63;;;21.20;43.70;;;;;;6264402;28;20541;-67
2020/12/13 13:13:29;;;;;;;8.77;6.22;;;21.20;43.70;;;;;;6234033;28;20025;-67
2020/12/13 13:16:31;;;;;;;8.65;5.97;;;21.10;43.60;;;;;;6267080;28;20032;-67
2020/12/13 13:19:32;;;;;;;8.77;5.78;;;21.20;43.70;;;;;;6266942;28;20025;-67
2020/12/13 13:22:33;;;;;;;8.75;6.00;;;21.20;43.60;;;;;;6266903;28;20119;-67
2020/12/13 13:25:34;;;;;;;8.70;5.93;;;21.20;43.60;;;;;;6259918;28;20030;-67
2020/12/13 13:28:37;;;;;;;10.23;6.00;;;21.20;43.60;;;;;;6248308;28;20522;-67
2020/12/13 13:31:38;;;;;;;9.77;6.25;;;21.20;43.60;;;;;;6266780;28;20028;-67
2020/12/13 13:34:38;;;;;;;8.65;5.82;;;21.20;43.60;;;;;;6251704;28;20499;-67
2020/12/13 13:37:39;;;;;;;10.45;6.22;;;21.20;44.30;;;;;;6245991;28;20124;-67
2020/12/13 13:40:39;;;;;;;9.23;6.53;;;21.20;43.60;;;;;;6264684;28;20021;-68
2020/12/13 13:43:43;;;;;;;10.95;7.10;;;21.20;43.70;;;;;;6268856;28;20608;-68
2020/12/13 13:46:49;;;;;;;7.53;5.38;;;21.20;43.60;;;;;;6248824;28;20013;-67
2020/12/13 13:50:00;;;;;;;9.60;5.88;;;21.20;43.60;;;;;;6253933;28;20022;-67
2020/12/13 13:53:01;;;;;;;8.52;5.93;;;21.20;43.60;;;;;;6266133;28;20091;-66
2020/12/13 13:56:07;;;;;;;7.90;5.60;;;21.20;43.80;;;;;;6266345;28;20037;-67
2020/12/13 13:59:11;;;;;;;9.32;5.68;;;21.20;43.70;;;;;;6266941;28;20660;-67
2020/12/13 14:02:11;;;;;;;10.45;6.00;;;21.20;43.80;;;;;;6264906;28;20033;-67
2020/12/13 14:05:12;;;;;;;9.18;5.82;;;21.20;43.80;;;;;;6253292;28;20055;-68
2020/12/13 14:11:23;;;;;;;8.85;6.05;;;21.20;43.60;;;;;;6240432;28;20108;-67
2020/12/13 14:14:23;;;;;;;9.18;6.45;;;21.20;43.60;;;;;;6244255;28;20025;-68
2020/12/13 14:17:24;;;;;;;10.07;6.50;;;21.10;44.20;;;;;;6260002;28;20032;-67
2020/12/13 14:20:24;;;;;;;8.93;5.75;;;21.10;43.50;;;;;;6249624;28;20033;-67
2020/12/13 14:23:28;;;;;;;8.23;5.75;;;21.20;43.60;;;;;;6241208;28;20209;-68
2020/12/13 14:26:30;;;;;;;8.75;5.80;;;21.10;43.60;;;;;;6240444;28;20025;-67
2020/12/13 14:29:30;;;;;;;8.20;5.80;;;21.10;43.50;;;;;;6259875;28;20029;-67
2020/12/13 14:32:31;;;;;;;9.77;6.10;;;21.10;43.70;;;;;;6256156;28;20025;-68
2020/12/13 14:35:31;;;;;;;11.60;6.63;;;21.20;43.60;;;;;;6263846;28;20029;-65
2020/12/13 14:38:32;;;;;;;10.20;6.20;;;21.20;43.60;;;;;;6263049;28;20037;-65
2020/12/13 14:41:32;;;;;;;19.33;6.13;;;21.20;43.40;;;;;;6263402;28;20122;-65
2020/12/13 14:44:33;;;;;;;12.95;6.35;;;21.20;43.60;;;;;;6265295;28;20029;-67
2020/12/13 14:47:33;;;;;;;12.82;7.07;;;21.20;43.60;;;;;;6264829;28;20044;-67
2020/12/13 14:50:34;;;;;;;9.10;6.07;;;21.20;43.70;;;;;;6264454;28;20025;-69
2020/12/13 14:53:34;;;;;;;19.02;6.68;;;21.20;43.80;;;;;;6245039;28;20036;-69
2020/12/13 14:56:35;;;;;;;13.50;7.20;;;21.30;43.70;;;;;;6239837;28;20029;-66
2020/12/13 14:59:35;;;;;;;11.13;6.50;;;21.30;43.80;;;;;;6240750;28;20393;-69
2020/12/13 15:02:36;;;;;;;9.55;6.25;;;21.30;43.70;;;;;;6238582;28;20034;-66
2020/12/13 15:05:36;;;;;;;10.85;6.78;;;21.30;43.60;;;;;;6245789;28;20037;-65
2020/12/13 15:08:37;;;;;;;12.63;6.55;;;21.30;43.70;;;;;;6258147;28;20082;-68
2020/12/13 15:11:37;;;;;;;9.23;5.78;;;21.30;43.80;;;;;;6258688;28;20037;-67
2020/12/13 15:14:50;;;;;;;11.35;5.80;;;21.30;43.90;;;;;;6239623;28;20014;-66
2020/12/13 15:17:53;;;;;;;9.20;5.45;;;21.20;44.00;;;;;;6249792;28;20025;-66
2020/12/13 15:20:55;;;;;;;9.57;5.57;;;21.20;44.10;;;;;;6248673;28;20020;-66
2020/12/13 15:23:56;;;;;;;9.43;5.95;;;21.20;44.10;;;;;;6247023;28;20014;-66
2020/12/13 15:26:57;;;;;;;13.70;6.30;;;21.20;44.10;;;;;;6251126;28;20053;-68
2020/12/13 15:29:57;;;;;;;38.15;6.32;;;21.20;44.30;;;;;;6268258;28;20045;-64
2020/12/13 15:32:57;;;;;;;46.03;7.03;;;21.30;44.70;;;;;;6262314;28;21257;-67
2020/12/13 15:35:58;;;;;;;20.85;6.32;;;21.30;45.60;;;;;;6249755;28;20145;-67
2020/12/13 15:38:58;;;;;;;13.13;6.03;;;21.30;44.50;;;;;;6261401;28;20029;-68
2020/12/13 15:41:59;;;;;;;24.42;6.70;;;21.30;44.50;;;;;;6252627;28;20108;-67
2020/12/13 15:44:59;;;;;;;19.17;6.35;;;21.30;44.60;;;;;;6244812;28;20110;-69